ENHV/HVG METAR and TAF weather

Enter ICAO airport designator
Station Type Date Time Source
ENHV METAR 2020/11/26 21:20 UTC NOAA

ENHV 262120Z 18009KT 9999 SCT013 BKN028 01/M01 Q1012


Station Type Date Time Source
ENHV Decoded METAR 2020/11/26 21:20 UTC NOAA

Honningsvag / Valan, Norway (ENHV) 71-01N 025-59E 14M
Nov 26, 2020 - 04:20 PM EST / 2020.11.26 2120 UTC
Wind: from the S (180 degrees) at 10 MPH (9 KT):0
Visibility: greater than 7 mile(s):0
Sky conditions: mostly cloudy
Temperature: 33 F (1 C)
Windchill: 24 F (-4 C):1
Dew Point: 30 F (-1 C)
Relative Humidity: 86%
Pressure (altimeter): 29.88 in. Hg (1012 hPa)
ob: ENHV 262120Z 18009KT 9999 SCT013 BKN028 01/M01 Q1012
cycle: 21

Station Type Date Time Source
ENHV TAF UTC NOAA

Error!

Example: see airport list